Impacts METAR Board
IDs:

KPHX - Phoenix/Sky Harbor, AZ, US

Updated at: 0400 UTC 22 Apr 2018
Potential Impact None Slight Moderate High
Time 21/16Z 21/17Z 21/18Z 21/19Z 21/20Z 21/21Z 21/22Z 21/23Z 22/00Z 22/01Z 22/02Z 22/03Z 22/04Z
Temp71 74 76 79 81 83 86 88 88 88 86 85 82
Dewpt34 33 32 30 30 29 29 29 28 28 29 30 30
Altim30.06 30.06 30.05 30.01 29.99 29.96 29.92 29.89 29.87 29.86 29.87 29.88 29.90
VIS10 10 10 10 10 10 10 10 10 10 10 10 10
CIG-- -- -- -- -- -- -- -- 290 290 290 -- 250
CoverSCTFEWCLRSCTSCTSCTSCTSCTBKNBKNBKNSCTBKN
FltCatVFRVFRVFRVFRVFRVFRVFRVFRVFRVFRVFRVFRVFR
WX--------------------------
WDir12011003103300030000260280230
WSpd7 6 3 5 6 3 0 6 3 0 10 10 5
WGst-- -- -- -- -- -- -- 15 14 -- -- -- --
Raw hourly METARs
KPHX 211551Z 12007KT 10SM FEW200 SCT250 22/01 A3006 RMK AO2 SLP167 T02170011
KPHX 211651Z 11006KT 10SM FEW250 23/01 A3006 RMK AO2 SLP167 T02330006
KPHX 211751Z VRB03KT 10SM CLR 24/00 A3005 RMK AO2 SLP161 T02440000 10256 20150 58006
KPHX 211851Z 31005KT 10SM SCT250 26/M01 A3001 RMK AO2 SLP149 T02611011
KPHX 211951Z 33006KT 10SM SCT250 27/M01 A2999 RMK AO2 SLP141 T02721011
KPHX 212051Z VRB03KT 10SM SCT250 28/M02 A2996 RMK AO2 SLP130 T02831017 56028
KPHX 212151Z 00000KT 10SM SCT250 SCT290 30/M02 A2992 RMK AO2 SLP117 T03001017
KPHX 212251Z 30006G15KT 10SM SCT250 SCT290 31/M02 A2989 RMK AO2 SLP105 T03111017
KPHX 212351Z VRB03G14KT 10SM SCT250 BKN290 31/M02 A2987 RMK AO2 SLP100 T03111022 10317 20250 56029
KPHX 220051Z 00000KT 10SM SCT250 BKN290 31/M02 A2986 RMK AO2 SLP097 T03111022
KPHX 220151Z 26010KT 10SM SCT250 BKN290 30/M02 A2987 RMK AO2 SLP099 T03001017
KPHX 220251Z 28010KT 10SM SCT250 29/M01 A2988 RMK AO2 SLP104 T02941011 53004
KPHX 220351Z 23005KT 10SM BKN250 28/M01 A2990 RMK AO2 SLP110 T02781011



Page loaded:  04:34 UTC  |   09:34 PM Pacific  |   10:34 PM Mountain  |   11:34 PM Central  |   12:34 AM Eastern

 

ADVISORIES

FORECASTS

FORECASTS

OBSERVATIONS

USER TOOLS

ABOUT US